sensor_id;sensor_type;location;lat;lon;timestamp;temperature;humidity
48604;DHT22;32708;51.212;6.788;2022-08-21T00:01:50;20.10;1.00
48604;DHT22;32708;51.212;6.788;2022-08-21T00:04:17;20.10;1.00
48604;DHT22;32708;51.212;6.788;2022-08-21T00:06:43;20.00;1.00
48604;DHT22;32708;51.212;6.788;2022-08-21T00:09:09;19.90;1.00
48604;DHT22;32708;51.212;6.788;2022-08-21T00:11:37;19.90;4.20
48604;DHT22;32708;51.212;6.788;2022-08-21T00:14:06;19.80;10.90
48604;DHT22;32708;51.212;6.788;2022-08-21T00:16:34;19.80;12.00
48604;DHT22;32708;51.212;6.788;2022-08-21T00:19:01;19.80;13.00
48604;DHT22;32708;51.212;6.788;2022-08-21T00:21:28;19.70;15.00
48604;DHT22;32708;51.212;6.788;2022-08-21T00:23:54;19.70;18.10
48604;DHT22;32708;51.212;6.788;2022-08-21T00:26:20;19.60;16.40
48604;DHT22;32708;51.212;6.788;2022-08-21T00:28:47;19.60;20.30
48604;DHT22;32708;51.212;6.788;2022-08-21T00:31:15;19.60;22.60
48604;DHT22;32708;51.212;6.788;2022-08-21T00:33:42;19.60;17.60
48604;DHT22;32708;51.212;6.788;2022-08-21T00:36:08;19.50;25.40
48604;DHT22;32708;51.212;6.788;2022-08-21T00:38:36;19.40;36.90
48604;DHT22;32708;51.212;6.788;2022-08-21T00:41:05;19.40;42.00
48604;DHT22;32708;51.212;6.788;2022-08-21T00:43:35;19.30;43.90
48604;DHT22;32708;51.212;6.788;2022-08-21T00:46:04;19.40;44.90
48604;DHT22;32708;51.212;6.788;2022-08-21T00:48:31;19.30;47.20
48604;DHT22;32708;51.212;6.788;2022-08-21T00:51:05;19.20;50.40
48604;DHT22;32708;51.212;6.788;2022-08-21T00:53:39;19.20;54.10
48604;DHT22;32708;51.212;6.788;2022-08-21T00:56:10;19.20;53.70
48604;DHT22;32708;51.212;6.788;2022-08-21T00:58:41;19.20;54.00
48604;DHT22;32708;51.212;6.788;2022-08-21T01:01:09;19.10;59.20
48604;DHT22;32708;51.212;6.788;2022-08-21T01:03:36;19.00;61.80
48604;DHT22;32708;51.212;6.788;2022-08-21T01:06:04;19.10;61.80
48604;DHT22;32708;51.212;6.788;2022-08-21T01:08:32;19.10;59.40
48604;DHT22;32708;51.212;6.788;2022-08-21T01:11:01;19.00;59.80
48604;DHT22;32708;51.212;6.788;2022-08-21T01:13:32;19.00;60.40
48604;DHT22;32708;51.212;6.788;2022-08-21T01:16:08;19.00;65.80
48604;DHT22;32708;51.212;6.788;2022-08-21T01:18:36;19.00;64.20
48604;DHT22;32708;51.212;6.788;2022-08-21T01:21:14;19.00;66.40
48604;DHT22;32708;51.212;6.788;2022-08-21T01:23:48;18.90;70.10
48604;DHT22;32708;51.212;6.788;2022-08-21T01:26:20;18.80;72.80
48604;DHT22;32708;51.212;6.788;2022-08-21T01:31:38;18.60;82.20
48604;DHT22;32708;51.212;6.788;2022-08-21T01:34:05;18.50;83.60
48604;DHT22;32708;51.212;6.788;2022-08-21T01:36:32;18.50;85.80
48604;DHT22;32708;51.212;6.788;2022-08-21T01:39:00;18.50;89.30
48604;DHT22;32708;51.212;6.788;2022-08-21T01:41:28;18.40;90.70
48604;DHT22;32708;51.212;6.788;2022-08-21T01:43:54;18.40;91.70
48604;DHT22;32708;51.212;6.788;2022-08-21T01:46:20;18.40;91.60
48604;DHT22;32708;51.212;6.788;2022-08-21T01:48:46;18.30;92.30
48604;DHT22;32708;51.212;6.788;2022-08-21T01:51:14;18.40;92.00
48604;DHT22;32708;51.212;6.788;2022-08-21T01:53:40;18.30;92.50
48604;DHT22;32708;51.212;6.788;2022-08-21T01:56:09;18.20;93.60
48604;DHT22;32708;51.212;6.788;2022-08-21T01:58:55;18.20;93.00
48604;DHT22;32708;51.212;6.788;2022-08-21T02:01:23;18.20;92.30
48604;DHT22;32708;51.212;6.788;2022-08-21T02:03:51;18.20;91.40
48604;DHT22;32708;51.212;6.788;2022-08-21T02:06:21;18.20;91.10
48604;DHT22;32708;51.212;6.788;2022-08-21T02:09:54;18.20;91.30
48604;DHT22;32708;51.212;6.788;2022-08-21T02:12:20;18.30;90.70
48604;DHT22;32708;51.212;6.788;2022-08-21T02:14:47;18.30;88.70
48604;DHT22;32708;51.212;6.788;2022-08-21T02:17:13;18.20;89.90
48604;DHT22;32708;51.212;6.788;2022-08-21T02:19:40;18.20;90.20
48604;DHT22;32708;51.212;6.788;2022-08-21T02:22:10;18.20;90.60
48604;DHT22;32708;51.212;6.788;2022-08-21T02:24:37;18.20;90.50
48604;DHT22;32708;51.212;6.788;2022-08-21T02:27:04;18.10;91.00
48604;DHT22;32708;51.212;6.788;2022-08-21T02:29:30;18.10;92.00
48604;DHT22;32708;51.212;6.788;2022-08-21T02:31:56;18.10;91.70
48604;DHT22;32708;51.212;6.788;2022-08-21T02:34:23;18.10;91.90
48604;DHT22;32708;51.212;6.788;2022-08-21T02:36:50;18.00;93.20
48604;DHT22;32708;51.212;6.788;2022-08-21T02:39:16;17.90;93.50
48604;DHT22;32708;51.212;6.788;2022-08-21T02:41:42;17.90;94.30
48604;DHT22;32708;51.212;6.788;2022-08-21T02:44:09;17.80;94.60
48604;DHT22;32708;51.212;6.788;2022-08-21T02:46:35;17.90;95.10
48604;DHT22;32708;51.212;6.788;2022-08-21T02:49:01;17.80;95.50
48604;DHT22;32708;51.212;6.788;2022-08-21T02:51:33;17.90;95.80
48604;DHT22;32708;51.212;6.788;2022-08-21T02:53:59;17.90;95.60
48604;DHT22;32708;51.212;6.788;2022-08-21T02:56:25;17.70;96.80
48604;DHT22;32708;51.212;6.788;2022-08-21T02:58:53;17.70;96.60
48604;DHT22;32708;51.212;6.788;2022-08-21T03:01:20;17.80;96.90
48604;DHT22;32708;51.212;6.788;2022-08-21T03:03:48;17.70;97.30
48604;DHT22;32708;51.212;6.788;2022-08-21T03:06:17;17.60;98.50
48604;DHT22;32708;51.212;6.788;2022-08-21T03:08:45;17.60;99.00
48604;DHT22;32708;51.212;6.788;2022-08-21T03:11:13;17.50;99.90
48604;DHT22;32708;51.212;6.788;2022-08-21T03:13:42;17.40;99.90
48604;DHT22;32708;51.212;6.788;2022-08-21T03:16:12;17.40;99.90
48604;DHT22;32708;51.212;6.788;2022-08-21T03:19:37;17.40;99.90
48604;DHT22;32708;51.212;6.788;2022-08-21T03:22:03;17.40;99.90
48604;DHT22;32708;51.212;6.788;2022-08-21T03:24:29;17.40;99.90
48604;DHT22;32708;51.212;6.788;2022-08-21T03:26:56;17.40;99.90
48604;DHT22;32708;51.212;6.788;2022-08-21T03:29:23;17.30;99.70
48604;DHT22;32708;51.212;6.788;2022-08-21T03:31:50;17.40;99.70
48604;DHT22;32708;51.212;6.788;2022-08-21T03:34:19;17.50;97.60
48604;DHT22;32708;51.212;6.788;2022-08-21T03:37:01;17.30;96.50
48604;DHT22;32708;51.212;6.788;2022-08-21T03:39:29;17.10;96.50
48604;DHT22;32708;51.212;6.788;2022-08-21T03:41:55;17.00;97.00
48604;DHT22;32708;51.212;6.788;2022-08-21T03:44:21;16.90;97.60
48604;DHT22;32708;51.212;6.788;2022-08-21T03:46:51;16.90;98.20
48604;DHT22;32708;51.212;6.788;2022-08-21T03:49:18;16.80;98.60
48604;DHT22;32708;51.212;6.788;2022-08-21T03:51:44;16.80;98.70
48604;DHT22;32708;51.212;6.788;2022-08-21T03:54:11;16.70;98.80
48604;DHT22;32708;51.212;6.788;2022-08-21T03:56:37;16.70;99.00
48604;DHT22;32708;51.212;6.788;2022-08-21T03:59:22;16.70;99.10
48604;DHT22;32708;51.212;6.788;2022-08-21T04:01:59;16.60;98.90
48604;DHT22;32708;51.212;6.788;2022-08-21T04:04:28;16.60;98.70
48604;DHT22;32708;51.212;6.788;2022-08-21T04:06:56;16.60;98.30
48604;DHT22;32708;51.212;6.788;2022-08-21T04:09:23;16.60;98.10
48604;DHT22;32708;51.212;6.788;2022-08-21T04:11:50;16.50;98.20
48604;DHT22;32708;51.212;6.788;2022-08-21T04:14:18;16.50;98.70
48604;DHT22;32708;51.212;6.788;2022-08-21T04:16:48;16.70;98.40
48604;DHT22;32708;51.212;6.788;2022-08-21T04:19:16;16.60;97.80
48604;DHT22;32708;51.212;6.788;2022-08-21T04:21:42;16.50;98.20
48604;DHT22;32708;51.212;6.788;2022-08-21T04:24:10;16.40;98.40
48604;DHT22;32708;51.212;6.788;2022-08-21T04:26:39;16.50;98.40
48604;DHT22;32708;51.212;6.788;2022-08-21T04:29:09;16.50;98.50
48604;DHT22;32708;51.212;6.788;2022-08-21T04:31:36;16.40;98.90
48604;DHT22;32708;51.212;6.788;2022-08-21T04:34:05;16.60;99.90
48604;DHT22;32708;51.212;6.788;2022-08-21T04:36:32;16.70;97.80
48604;DHT22;32708;51.212;6.788;2022-08-21T04:38:59;16.70;98.00
48604;DHT22;32708;51.212;6.788;2022-08-21T04:41:51;16.70;97.60
48604;DHT22;32708;51.212;6.788;2022-08-21T04:44:17;16.70;97.70
48604;DHT22;32708;51.212;6.788;2022-08-21T04:46:43;16.70;97.50
48604;DHT22;32708;51.212;6.788;2022-08-21T04:49:10;16.60;98.50
48604;DHT22;32708;51.212;6.788;2022-08-21T04:51:38;16.50;98.50
48604;DHT22;32708;51.212;6.788;2022-08-21T04:54:17;16.60;98.30
48604;DHT22;32708;51.212;6.788;2022-08-21T04:57:06;16.70;98.30
48604;DHT22;32708;51.212;6.788;2022-08-21T04:59:40;16.60;98.30
48604;DHT22;32708;51.212;6.788;2022-08-21T05:02:11;16.70;97.80
48604;DHT22;32708;51.212;6.788;2022-08-21T05:04:49;16.70;97.70
48604;DHT22;32708;51.212;6.788;2022-08-21T05:07:23;16.70;97.80
48604;DHT22;32708;51.212;6.788;2022-08-21T05:09:52;16.70;98.50
48604;DHT22;32708;51.212;6.788;2022-08-21T05:12:20;16.80;97.60
48604;DHT22;32708;51.212;6.788;2022-08-21T05:14:47;17.00;96.60
48604;DHT22;32708;51.212;6.788;2022-08-21T05:17:14;17.20;95.40
48604;DHT22;32708;51.212;6.788;2022-08-21T05:19:40;17.20;94.00
48604;DHT22;32708;51.212;6.788;2022-08-21T05:22:06;17.10;93.00
48604;DHT22;32708;51.212;6.788;2022-08-21T05:24:33;17.20;93.80
48604;DHT22;32708;51.212;6.788;2022-08-21T05:26:59;17.30;92.50
48604;DHT22;32708;51.212;6.788;2022-08-21T05:29:25;17.30;91.70
48604;DHT22;32708;51.212;6.788;2022-08-21T05:31:54;17.40;92.00
48604;DHT22;32708;51.212;6.788;2022-08-21T05:34:23;17.50;87.30
48604;DHT22;32708;51.212;6.788;2022-08-21T05:36:50;17.50;88.60
48604;DHT22;32708;51.212;6.788;2022-08-21T05:39:16;17.50;86.70
48604;DHT22;32708;51.212;6.788;2022-08-21T05:41:43;17.70;81.50
48604;DHT22;32708;51.212;6.788;2022-08-21T05:44:09;17.90;80.60
48604;DHT22;32708;51.212;6.788;2022-08-21T05:46:35;18.50;60.00
48604;DHT22;32708;51.212;6.788;2022-08-21T05:49:03;18.70;52.40
48604;DHT22;32708;51.212;6.788;2022-08-21T05:51:29;19.10;30.80
48604;DHT22;32708;51.212;6.788;2022-08-21T05:53:56;19.30;12.10
48604;DHT22;32708;51.212;6.788;2022-08-21T05:56:22;19.90;1.00
48604;DHT22;32708;51.212;6.788;2022-08-21T05:58:48;20.20;1.00
48604;DHT22;32708;51.212;6.788;2022-08-21T06:01:15;20.60;1.00
48604;DHT22;32708;51.212;6.788;2022-08-21T06:03:42;20.50;1.00
48604;DHT22;32708;51.212;6.788;2022-08-21T06:06:09;20.70;99.90
48604;DHT22;32708;51.212;6.788;2022-08-21T06:08:38;21.10;99.90
48604;DHT22;32708;51.212;6.788;2022-08-21T06:11:05;21.30;68.30
48604;DHT22;32708;51.212;6.788;2022-08-21T06:13:33;21.80;99.90
48604;DHT22;32708;51.212;6.788;2022-08-21T06:16:07;21.80;99.90
48604;DHT22;32708;51.212;6.788;2022-08-21T06:18:40;21.90;1.00
48604;DHT22;32708;51.212;6.788;2022-08-21T06:21:26;21.80;99.90
48604;DHT22;32708;51.212;6.788;2022-08-21T06:23:52;21.90;1.00
48604;DHT22;32708;51.212;6.788;2022-08-21T06:26:19;21.70;99.90
48604;DHT22;32708;51.212;6.788;2022-08-21T06:28:46;22.00;99.90
48604;DHT22;32708;51.212;6.788;2022-08-21T06:31:21;22.20;99.90
48604;DHT22;32708;51.212;6.788;2022-08-21T06:33:54;22.10;99.90
48604;DHT22;32708;51.212;6.788;2022-08-21T06:36:21;21.90;99.90
48604;DHT22;32708;51.212;6.788;2022-08-21T06:38:55;22.60;99.90
48604;DHT22;32708;51.212;6.788;2022-08-21T06:42:14;22.70;99.90
48604;DHT22;32708;51.212;6.788;2022-08-21T06:44:42;22.90;99.90
48604;DHT22;32708;51.212;6.788;2022-08-21T06:47:09;23.00;97.90
48604;DHT22;32708;51.212;6.788;2022-08-21T06:49:36;22.60;90.00
48604;DHT22;32708;51.212;6.788;2022-08-21T06:52:02;22.70;2.10
48604;DHT22;32708;51.212;6.788;2022-08-21T06:54:29;22.90;1.00
48604;DHT22;32708;51.212;6.788;2022-08-21T06:56:56;22.80;1.00
48604;DHT22;32708;51.212;6.788;2022-08-21T06:59:26;23.20;1.00
48604;DHT22;32708;51.212;6.788;2022-08-21T07:01:52;22.90;1.00
48604;DHT22;32708;51.212;6.788;2022-08-21T07:04:21;23.20;1.00
48604;DHT22;32708;51.212;6.788;2022-08-21T07:06:52;22.60;1.00
48604;DHT22;32708;51.212;6.788;2022-08-21T07:09:19;22.40;1.00
48604;DHT22;32708;51.212;6.788;2022-08-21T07:11:51;22.70;1.00
48604;DHT22;32708;51.212;6.788;2022-08-21T07:14:21;23.20;1.00
48604;DHT22;32708;51.212;6.788;2022-08-21T07:16:48;22.90;1.00
48604;DHT22;32708;51.212;6.788;2022-08-21T07:19:19;23.10;1.00
48604;DHT22;32708;51.212;6.788;2022-08-21T07:21:46;23.20;99.90
48604;DHT22;32708;51.212;6.788;2022-08-21T07:24:12;22.90;1.00
48604;DHT22;32708;51.212;6.788;2022-08-21T07:26:40;23.20;99.90
48604;DHT22;32708;51.212;6.788;2022-08-21T07:29:07;23.70;99.90
48604;DHT22;32708;51.212;6.788;2022-08-21T07:31:33;23.80;99.90
48604;DHT22;32708;51.212;6.788;2022-08-21T07:34:00;23.50;99.90
48604;DHT22;32708;51.212;6.788;2022-08-21T07:36:28;23.20;99.90
48604;DHT22;32708;51.212;6.788;2022-08-21T07:38:54;23.50;99.90
48604;DHT22;32708;51.212;6.788;2022-08-21T07:42:15;23.60;99.90
48604;DHT22;32708;51.212;6.788;2022-08-21T07:44:41;23.60;99.90
48604;DHT22;32708;51.212;6.788;2022-08-21T07:47:08;23.80;99.90
48604;DHT22;32708;51.212;6.788;2022-08-21T07:49:35;23.40;99.90
48604;DHT22;32708;51.212;6.788;2022-08-21T07:52:02;23.70;99.90
48604;DHT22;32708;51.212;6.788;2022-08-21T07:54:28;24.30;99.90
48604;DHT22;32708;51.212;6.788;2022-08-21T07:57:56;24.20;99.90
48604;DHT22;32708;51.212;6.788;2022-08-21T08:00:57;24.20;99.90
48604;DHT22;32708;51.212;6.788;2022-08-21T08:03:25;24.00;99.90
48604;DHT22;32708;51.212;6.788;2022-08-21T08:05:51;24.30;99.90
48604;DHT22;32708;51.212;6.788;2022-08-21T08:08:23;24.50;99.90
48604;DHT22;32708;51.212;6.788;2022-08-21T08:10:55;24.00;99.90
48604;DHT22;32708;51.212;6.788;2022-08-21T08:13:24;24.70;99.90
48604;DHT22;32708;51.212;6.788;2022-08-21T08:15:50;24.50;99.90
48604;DHT22;32708;51.212;6.788;2022-08-21T08:18:17;24.40;99.90
48604;DHT22;32708;51.212;6.788;2022-08-21T08:20:43;24.20;99.90
48604;DHT22;32708;51.212;6.788;2022-08-21T08:23:12;24.80;99.90
48604;DHT22;32708;51.212;6.788;2022-08-21T08:25:39;25.00;99.90
48604;DHT22;32708;51.212;6.788;2022-08-21T08:28:06;25.10;99.90
48604;DHT22;32708;51.212;6.788;2022-08-21T08:30:34;25.50;99.90
48604;DHT22;32708;51.212;6.788;2022-08-21T08:33:00;25.70;99.90
48604;DHT22;32708;51.212;6.788;2022-08-21T08:35:26;25.80;99.90
48604;DHT22;32708;51.212;6.788;2022-08-21T08:37:55;25.80;99.90
48604;DHT22;32708;51.212;6.788;2022-08-21T08:40:41;25.90;99.90
48604;DHT22;32708;51.212;6.788;2022-08-21T08:43:14;25.70;99.90
48604;DHT22;32708;51.212;6.788;2022-08-21T08:45:47;26.00;99.90
48604;DHT22;32708;51.212;6.788;2022-08-21T08:51:43;26.40;99.90
48604;DHT22;32708;51.212;6.788;2022-08-21T08:54:21;26.20;99.90
48604;DHT22;32708;51.212;6.788;2022-08-21T08:57:03;25.70;99.90
48604;DHT22;32708;51.212;6.788;2022-08-21T08:59:44;25.90;99.90
48604;DHT22;32708;51.212;6.788;2022-08-21T09:02:15;25.60;99.90
48604;DHT22;32708;51.212;6.788;2022-08-21T09:04:49;25.50;99.90
48604;DHT22;32708;51.212;6.788;2022-08-21T09:07:47;25.90;99.90
48604;DHT22;32708;51.212;6.788;2022-08-21T09:26:24;25.80;99.90
48604;DHT22;32708;51.212;6.788;2022-08-21T09:28:57;25.60;99.90
48604;DHT22;32708;51.212;6.788;2022-08-21T09:31:33;25.60;99.90
48604;DHT22;32708;51.212;6.788;2022-08-21T09:34:09;26.10;99.90
48604;DHT22;32708;51.212;6.788;2022-08-21T09:36:48;26.10;99.90
48604;DHT22;32708;51.212;6.788;2022-08-21T09:39:31;25.80;99.90
48604;DHT22;32708;51.212;6.788;2022-08-21T09:42:08;25.80;99.90
48604;DHT22;32708;51.212;6.788;2022-08-21T09:44:39;25.50;99.90
48604;DHT22;32708;51.212;6.788;2022-08-21T09:47:11;25.50;99.90
48604;DHT22;32708;51.212;6.788;2022-08-21T09:49:43;25.70;99.90
48604;DHT22;32708;51.212;6.788;2022-08-21T09:52:25;26.10;99.90
48604;DHT22;32708;51.212;6.788;2022-08-21T09:54:55;26.60;99.90
48604;DHT22;32708;51.212;6.788;2022-08-21T09:57:26;26.70;99.90
48604;DHT22;32708;51.212;6.788;2022-08-21T10:00:27;25.90;99.90
48604;DHT22;32708;51.212;6.788;2022-08-21T10:06:25;26.00;98.90
48604;DHT22;32708;51.212;6.788;2022-08-21T10:09:23;25.70;98.70
48604;DHT22;32708;51.212;6.788;2022-08-21T10:20:57;26.40;96.50
48604;DHT22;32708;51.212;6.788;2022-08-21T10:30:04;26.40;94.80
48604;DHT22;32708;51.212;6.788;2022-08-21T10:32:59;26.40;93.80
48604;DHT22;32708;51.212;6.788;2022-08-21T10:35:32;26.30;92.90
48604;DHT22;32708;51.212;6.788;2022-08-21T10:41:04;25.90;94.00
48604;DHT22;32708;51.212;6.788;2022-08-21T10:44:17;25.80;93.50
48604;DHT22;32708;51.212;6.788;2022-08-21T10:50:02;25.60;93.70
48604;DHT22;32708;51.212;6.788;2022-08-21T10:52:47;25.80;93.00
48604;DHT22;32708;51.212;6.788;2022-08-21T10:55:41;26.40;92.30
48604;DHT22;32708;51.212;6.788;2022-08-21T10:58:25;26.80;91.40
48604;DHT22;32708;51.212;6.788;2022-08-21T11:01:29;26.90;90.70
48604;DHT22;32708;51.212;6.788;2022-08-21T11:07:36;26.30;90.00
48604;DHT22;32708;51.212;6.788;2022-08-21T11:10:21;26.40;88.80
48604;DHT22;32708;51.212;6.788;2022-08-21T11:13:01;26.80;88.30
48604;DHT22;32708;51.212;6.788;2022-08-21T11:18:45;26.90;84.50
48604;DHT22;32708;51.212;6.788;2022-08-21T11:21:56;26.70;85.00
48604;DHT22;32708;51.212;6.788;2022-08-21T11:24:32;26.90;81.30
48604;DHT22;32708;51.212;6.788;2022-08-21T11:29:40;27.20;79.70
48604;DHT22;32708;51.212;6.788;2022-08-21T11:35:45;27.20;77.80
48604;DHT22;32708;51.212;6.788;2022-08-21T11:38:41;27.50;74.60
48604;DHT22;32708;51.212;6.788;2022-08-21T11:41:28;27.30;72.30
48604;DHT22;32708;51.212;6.788;2022-08-21T11:45:16;27.10;69.50
48604;DHT22;32708;51.212;6.788;2022-08-21T11:50:41;27.00;71.00
48604;DHT22;32708;51.212;6.788;2022-08-21T11:53:26;26.90;71.10
48604;DHT22;32708;51.212;6.788;2022-08-21T11:56:27;26.80;70.90
48604;DHT22;32708;51.212;6.788;2022-08-21T11:59:10;27.00;67.20
48604;DHT22;32708;51.212;6.788;2022-08-21T12:01:46;27.10;68.60
48604;DHT22;32708;51.212;6.788;2022-08-21T12:04:30;27.40;66.90
48604;DHT22;32708;51.212;6.788;2022-08-21T12:07:15;27.30;61.70
48604;DHT22;32708;51.212;6.788;2022-08-21T12:09:55;27.70;58.90
48604;DHT22;32708;51.212;6.788;2022-08-21T12:12:28;28.50;55.60
48604;DHT22;32708;51.212;6.788;2022-08-21T12:15:17;28.30;52.00
48604;DHT22;32708;51.212;6.788;2022-08-21T12:17:59;28.20;51.70
48604;DHT22;32708;51.212;6.788;2022-08-21T12:23:32;28.10;46.40
48604;DHT22;32708;51.212;6.788;2022-08-21T12:26:28;27.80;44.30
48604;DHT22;32708;51.212;6.788;2022-08-21T12:29:25;27.60;45.60
48604;DHT22;32708;51.212;6.788;2022-08-21T12:32:01;27.90;43.80
48604;DHT22;32708;51.212;6.788;2022-08-21T12:37:51;28.20;40.20
48604;DHT22;32708;51.212;6.788;2022-08-21T12:40:39;28.40;39.80
48604;DHT22;32708;51.212;6.788;2022-08-21T12:43:20;28.40;39.20
48604;DHT22;32708;51.212;6.788;2022-08-21T12:45:54;27.90;39.70
48604;DHT22;32708;51.212;6.788;2022-08-21T12:48:45;27.70;40.80
48604;DHT22;32708;51.212;6.788;2022-08-21T12:51:24;27.90;38.80
48604;DHT22;32708;51.212;6.788;2022-08-21T12:53:57;27.60;36.80
48604;DHT22;32708;51.212;6.788;2022-08-21T12:56:29;27.30;35.40
48604;DHT22;32708;51.212;6.788;2022-08-21T12:59:07;27.00;35.50
48604;DHT22;32708;51.212;6.788;2022-08-21T13:01:50;27.00;38.00
48604;DHT22;32708;51.212;6.788;2022-08-21T13:04:40;27.00;37.30
48604;DHT22;32708;51.212;6.788;2022-08-21T13:07:11;26.80;39.70
48604;DHT22;32708;51.212;6.788;2022-08-21T13:09:52;27.00;38.30
48604;DHT22;32708;51.212;6.788;2022-08-21T13:12:22;26.90;39.30
48604;DHT22;32708;51.212;6.788;2022-08-21T13:14:52;27.40;38.50
48604;DHT22;32708;51.212;6.788;2022-08-21T13:17:25;27.60;37.30
48604;DHT22;32708;51.212;6.788;2022-08-21T13:19:58;27.70;36.30
48604;DHT22;32708;51.212;6.788;2022-08-21T13:22:27;27.90;34.40
48604;DHT22;32708;51.212;6.788;2022-08-21T13:24:54;27.80;32.00
48604;DHT22;32708;51.212;6.788;2022-08-21T13:27:29;27.20;32.30
48604;DHT22;32708;51.212;6.788;2022-08-21T13:30:10;27.30;31.40
48604;DHT22;32708;51.212;6.788;2022-08-21T13:32:47;27.00;32.00
48604;DHT22;32708;51.212;6.788;2022-08-21T13:35:21;26.90;31.70
48604;DHT22;32708;51.212;6.788;2022-08-21T13:37:55;26.40;31.60
48604;DHT22;32708;51.212;6.788;2022-08-21T13:40:28;26.00;31.90
48604;DHT22;32708;51.212;6.788;2022-08-21T13:42:57;26.20;32.30
48604;DHT22;32708;51.212;6.788;2022-08-21T13:45:31;26.30;32.00
48604;DHT22;32708;51.212;6.788;2022-08-21T13:48:00;26.40;30.80
48604;DHT22;32708;51.212;6.788;2022-08-21T13:50:29;26.50;32.00
48604;DHT22;32708;51.212;6.788;2022-08-21T13:53:06;26.60;32.20
48604;DHT22;32708;51.212;6.788;2022-08-21T13:55:44;26.40;33.50
48604;DHT22;32708;51.212;6.788;2022-08-21T13:58:11;26.40;33.80
48604;DHT22;32708;51.212;6.788;2022-08-21T14:00:47;26.20;34.90
48604;DHT22;32708;51.212;6.788;2022-08-21T14:03:35;26.20;37.30
48604;DHT22;32708;51.212;6.788;2022-08-21T14:06:25;26.50;36.50
48604;DHT22;32708;51.212;6.788;2022-08-21T14:09:09;26.50;36.10
48604;DHT22;32708;51.212;6.788;2022-08-21T14:11:38;26.30;36.90
48604;DHT22;32708;51.212;6.788;2022-08-21T14:14:20;26.50;36.90
48604;DHT22;32708;51.212;6.788;2022-08-21T14:16:58;26.50;36.10
48604;DHT22;32708;51.212;6.788;2022-08-21T14:19:38;26.70;35.80
48604;DHT22;32708;51.212;6.788;2022-08-21T14:30:32;25.80;33.10
48604;DHT22;32708;51.212;6.788;2022-08-21T14:33:03;26.10;34.20
48604;DHT22;32708;51.212;6.788;2022-08-21T14:35:33;26.30;33.60
48604;DHT22;32708;51.212;6.788;2022-08-21T14:37:59;26.50;34.60
48604;DHT22;32708;51.212;6.788;2022-08-21T14:40:26;26.40;34.20
48604;DHT22;32708;51.212;6.788;2022-08-21T14:42:53;26.30;35.00
48604;DHT22;32708;51.212;6.788;2022-08-21T14:45:28;26.20;36.60
48604;DHT22;32708;51.212;6.788;2022-08-21T14:47:58;26.30;35.10
48604;DHT22;32708;51.212;6.788;2022-08-21T14:50:25;26.00;32.60
48604;DHT22;32708;51.212;6.788;2022-08-21T14:52:51;26.10;34.40
48604;DHT22;32708;51.212;6.788;2022-08-21T14:55:18;26.10;34.80
48604;DHT22;32708;51.212;6.788;2022-08-21T14:57:47;26.30;33.90
48604;DHT22;32708;51.212;6.788;2022-08-21T15:00:19;26.20;33.20
48604;DHT22;32708;51.212;6.788;2022-08-21T15:02:51;26.20;32.80
48604;DHT22;32708;51.212;6.788;2022-08-21T15:05:18;26.30;33.20
48604;DHT22;32708;51.212;6.788;2022-08-21T15:07:44;26.30;33.50
48604;DHT22;32708;51.212;6.788;2022-08-21T15:10:11;26.10;34.50
48604;DHT22;32708;51.212;6.788;2022-08-21T15:12:38;26.20;34.90
48604;DHT22;32708;51.212;6.788;2022-08-21T15:15:06;26.20;34.80
48604;DHT22;32708;51.212;6.788;2022-08-21T15:17:34;25.90;34.50
48604;DHT22;32708;51.212;6.788;2022-08-21T15:20:03;25.80;34.40
48604;DHT22;32708;51.212;6.788;2022-08-21T15:22:33;25.90;32.60
48604;DHT22;32708;51.212;6.788;2022-08-21T15:25:01;26.00;30.80
48604;DHT22;32708;51.212;6.788;2022-08-21T15:27:29;25.90;30.80
48604;DHT22;32708;51.212;6.788;2022-08-21T15:29:56;26.00;30.00
48604;DHT22;32708;51.212;6.788;2022-08-21T15:32:28;25.90;29.90
48604;DHT22;32708;51.212;6.788;2022-08-21T15:34:58;25.70;30.00
48604;DHT22;32708;51.212;6.788;2022-08-21T15:37:28;26.00;29.20
48604;DHT22;32708;51.212;6.788;2022-08-21T15:39:56;26.00;28.40
48604;DHT22;32708;51.212;6.788;2022-08-21T15:42:24;26.10;29.10
48604;DHT22;32708;51.212;6.788;2022-08-21T15:44:56;26.10;28.70
48604;DHT22;32708;51.212;6.788;2022-08-21T15:47:29;26.00;28.60
48604;DHT22;32708;51.212;6.788;2022-08-21T15:50:00;26.10;28.60
48604;DHT22;32708;51.212;6.788;2022-08-21T15:52:28;26.20;28.50
48604;DHT22;32708;51.212;6.788;2022-08-21T15:54:54;26.10;28.50
48604;DHT22;32708;51.212;6.788;2022-08-21T15:57:24;26.10;26.40
48604;DHT22;32708;51.212;6.788;2022-08-21T16:00:43;25.90;27.80
48604;DHT22;32708;51.212;6.788;2022-08-21T16:03:15;25.80;27.00
48604;DHT22;32708;51.212;6.788;2022-08-21T16:05:52;26.50;27.40
48604;DHT22;32708;51.212;6.788;2022-08-21T16:08:21;26.00;26.80
48604;DHT22;32708;51.212;6.788;2022-08-21T16:10:53;25.90;27.10
48604;DHT22;32708;51.212;6.788;2022-08-21T16:13:30;25.90;27.10
48604;DHT22;32708;51.212;6.788;2022-08-21T16:16:04;26.10;26.40
48604;DHT22;32708;51.212;6.788;2022-08-21T16:18:32;26.00;25.30
48604;DHT22;32708;51.212;6.788;2022-08-21T16:20:58;25.80;26.60
48604;DHT22;32708;51.212;6.788;2022-08-21T16:23:24;25.90;25.40
48604;DHT22;32708;51.212;6.788;2022-08-21T16:25:51;26.00;24.60
48604;DHT22;32708;51.212;6.788;2022-08-21T16:28:28;25.80;23.50
48604;DHT22;32708;51.212;6.788;2022-08-21T16:30:57;25.60;22.70
48604;DHT22;32708;51.212;6.788;2022-08-21T16:34:02;25.60;23.00
48604;DHT22;32708;51.212;6.788;2022-08-21T16:36:29;24.90;23.70
48604;DHT22;32708;51.212;6.788;2022-08-21T16:39:06;25.50;24.00
48604;DHT22;32708;51.212;6.788;2022-08-21T16:59:20;25.20;22.70
48604;DHT22;32708;51.212;6.788;2022-08-21T17:59:13;24.40;27.70
48604;DHT22;32708;51.212;6.788;2022-08-21T18:01:55;24.40;27.60
48604;DHT22;32708;51.212;6.788;2022-08-21T18:04:29;23.00;26.90
48604;DHT22;32708;51.212;6.788;2022-08-21T18:07:03;24.20;28.30
48604;DHT22;32708;51.212;6.788;2022-08-21T18:09:33;24.10;30.00
48604;DHT22;32708;51.212;6.788;2022-08-21T18:12:10;24.10;34.40
48604;DHT22;32708;51.212;6.788;2022-08-21T18:14:39;24.00;30.00
48604;DHT22;32708;51.212;6.788;2022-08-21T18:17:11;23.90;31.20
48604;DHT22;32708;51.212;6.788;2022-08-21T18:19:42;23.00;31.80
48604;DHT22;32708;51.212;6.788;2022-08-21T18:22:09;23.90;31.90
48604;DHT22;32708;51.212;6.788;2022-08-21T18:24:37;23.90;33.00
48604;DHT22;32708;51.212;6.788;2022-08-21T18:27:06;23.90;33.00
48604;DHT22;32708;51.212;6.788;2022-08-21T18:29:35;23.80;34.50
48604;DHT22;32708;51.212;6.788;2022-08-21T18:32:04;23.70;36.80
48604;DHT22;32708;51.212;6.788;2022-08-21T18:34:38;23.70;36.00
48604;DHT22;32708;51.212;6.788;2022-08-21T18:37:07;23.60;37.70
48604;DHT22;32708;51.212;6.788;2022-08-21T18:39:36;23.70;38.30
48604;DHT22;32708;51.212;6.788;2022-08-21T18:42:06;23.60;39.60